sensor_id;sensor_type;location;lat;lon;timestamp;P1;durP1;ratioP1;P2;durP2;ratioP2
37645;SDS011;23489;49.600;6.138;2022-09-30T00:00:58;7.43;;;3.88;;
37645;SDS011;23489;49.600;6.138;2022-09-30T00:03:24;5.80;;;4.03;;
37645;SDS011;23489;49.600;6.138;2022-09-30T00:05:59;5.80;;;4.40;;
37645;SDS011;23489;49.600;6.138;2022-09-30T00:08:26;7.93;;;5.20;;
37645;SDS011;23489;49.600;6.138;2022-09-30T00:11:02;8.13;;;5.70;;
37645;SDS011;23489;49.600;6.138;2022-09-30T00:13:49;6.90;;;5.03;;
37645;SDS011;23489;49.600;6.138;2022-09-30T00:16:16;10.27;;;5.47;;
37645;SDS011;23489;49.600;6.138;2022-09-30T00:18:43;8.35;;;5.65;;
37645;SDS011;23489;49.600;6.138;2022-09-30T00:21:10;10.73;;;5.93;;
37645;SDS011;23489;49.600;6.138;2022-09-30T00:23:37;5.88;;;4.70;;
37645;SDS011;23489;49.600;6.138;2022-09-30T00:26:11;10.02;;;5.80;;
37645;SDS011;23489;49.600;6.138;2022-09-30T00:28:42;8.82;;;6.28;;
37645;SDS011;23489;49.600;6.138;2022-09-30T00:31:13;8.02;;;5.60;;
37645;SDS011;23489;49.600;6.138;2022-09-30T00:33:40;8.15;;;5.45;;
37645;SDS011;23489;49.600;6.138;2022-09-30T00:36:06;8.88;;;5.65;;
37645;SDS011;23489;49.600;6.138;2022-09-30T00:38:32;7.97;;;5.35;;
37645;SDS011;23489;49.600;6.138;2022-09-30T00:40:58;11.15;;;5.68;;
37645;SDS011;23489;49.600;6.138;2022-09-30T00:43:41;9.18;;;5.97;;
37645;SDS011;23489;49.600;6.138;2022-09-30T00:46:23;9.02;;;5.85;;
37645;SDS011;23489;49.600;6.138;2022-09-30T00:48:58;9.88;;;5.97;;
37645;SDS011;23489;49.600;6.138;2022-09-30T00:51:33;9.05;;;6.13;;
37645;SDS011;23489;49.600;6.138;2022-09-30T00:54:02;11.60;;;5.75;;
37645;SDS011;23489;49.600;6.138;2022-09-30T00:56:38;12.13;;;6.15;;
37645;SDS011;23489;49.600;6.138;2022-09-30T00:59:24;10.30;;;6.22;;
37645;SDS011;23489;49.600;6.138;2022-09-30T01:01:55;9.43;;;5.97;;
37645;SDS011;23489;49.600;6.138;2022-09-30T01:04:22;10.70;;;6.63;;
37645;SDS011;23489;49.600;6.138;2022-09-30T01:06:49;9.80;;;6.93;;
37645;SDS011;23489;49.600;6.138;2022-09-30T01:09:15;9.15;;;6.50;;
37645;SDS011;23489;49.600;6.138;2022-09-30T01:11:41;35.08;;;6.90;;
37645;SDS011;23489;49.600;6.138;2022-09-30T01:14:16;14.70;;;6.75;;
37645;SDS011;23489;49.600;6.138;2022-09-30T01:28:10;15.02;;;5.93;;
37645;SDS011;23489;49.600;6.138;2022-09-30T01:33:54;10.57;;;6.30;;
37645;SDS011;23489;49.600;6.138;2022-09-30T01:41:51;11.45;;;6.40;;
37645;SDS011;23489;49.600;6.138;2022-09-30T01:44:26;14.40;;;6.90;;
37645;SDS011;23489;49.600;6.138;2022-09-30T01:54:47;11.07;;;6.82;;
37645;SDS011;23489;49.600;6.138;2022-09-30T02:00:03;11.82;;;6.28;;
37645;SDS011;23489;49.600;6.138;2022-09-30T02:02:38;23.58;;;6.82;;
37645;SDS011;23489;49.600;6.138;2022-09-30T02:05:16;10.48;;;6.40;;
37645;SDS011;23489;49.600;6.138;2022-09-30T02:07:47;14.38;;;7.05;;
37645;SDS011;23489;49.600;6.138;2022-09-30T02:10:20;9.65;;;5.97;;
37645;SDS011;23489;49.600;6.138;2022-09-30T02:12:59;9.88;;;6.47;;
37645;SDS011;23489;49.600;6.138;2022-09-30T02:15:36;9.82;;;6.30;;
37645;SDS011;23489;49.600;6.138;2022-09-30T02:18:09;10.20;;;6.20;;
37645;SDS011;23489;49.600;6.138;2022-09-30T02:20:44;10.65;;;6.50;;
37645;SDS011;23489;49.600;6.138;2022-09-30T02:23:14;8.13;;;5.85;;
37645;SDS011;23489;49.600;6.138;2022-09-30T02:25:49;8.15;;;5.85;;
37645;SDS011;23489;49.600;6.138;2022-09-30T02:28:21;9.13;;;5.95;;
37645;SDS011;23489;49.600;6.138;2022-09-30T02:30:51;11.93;;;6.05;;
37645;SDS011;23489;49.600;6.138;2022-09-30T02:33:25;13.40;;;6.90;;
37645;SDS011;23489;49.600;6.138;2022-09-30T02:35:58;11.32;;;6.22;;
37645;SDS011;23489;49.600;6.138;2022-09-30T02:38:32;10.43;;;6.05;;
37645;SDS011;23489;49.600;6.138;2022-09-30T02:41:13;9.95;;;6.00;;
37645;SDS011;23489;49.600;6.138;2022-09-30T02:43:45;10.07;;;5.47;;
37645;SDS011;23489;49.600;6.138;2022-09-30T02:46:24;13.15;;;6.13;;
37645;SDS011;23489;49.600;6.138;2022-09-30T02:51:47;8.10;;;5.13;;
37645;SDS011;23489;49.600;6.138;2022-09-30T02:54:48;9.35;;;5.50;;
37645;SDS011;23489;49.600;6.138;2022-09-30T02:57:21;7.15;;;5.65;;
37645;SDS011;23489;49.600;6.138;2022-09-30T03:00:00;8.27;;;5.93;;
37645;SDS011;23489;49.600;6.138;2022-09-30T03:02:26;9.20;;;5.45;;
37645;SDS011;23489;49.600;6.138;2022-09-30T03:04:52;8.43;;;5.65;;
37645;SDS011;23489;49.600;6.138;2022-09-30T03:07:18;8.45;;;6.15;;
37645;SDS011;23489;49.600;6.138;2022-09-30T03:09:44;9.63;;;5.35;;
37645;SDS011;23489;49.600;6.138;2022-09-30T03:12:20;9.25;;;5.90;;
37645;SDS011;23489;49.600;6.138;2022-09-30T03:17:55;8.90;;;4.93;;
37645;SDS011;23489;49.600;6.138;2022-09-30T03:20:48;7.85;;;5.03;;
37645;SDS011;23489;49.600;6.138;2022-09-30T03:23:44;9.15;;;5.70;;
37645;SDS011;23489;49.600;6.138;2022-09-30T03:29:08;10.02;;;6.00;;
37645;SDS011;23489;49.600;6.138;2022-09-30T03:32:03;12.10;;;6.45;;
37645;SDS011;23489;49.600;6.138;2022-09-30T03:46:22;15.88;;;7.45;;
37645;SDS011;23489;49.600;6.138;2022-09-30T03:48:52;12.68;;;7.22;;
37645;SDS011;23489;49.600;6.138;2022-09-30T03:51:22;11.63;;;6.55;;
37645;SDS011;23489;49.600;6.138;2022-09-30T03:53:53;12.82;;;6.75;;
37645;SDS011;23489;49.600;6.138;2022-09-30T03:56:27;15.93;;;6.47;;
37645;SDS011;23489;49.600;6.138;2022-09-30T03:58:54;10.90;;;6.68;;
37645;SDS011;23489;49.600;6.138;2022-09-30T04:01:21;9.68;;;6.75;;
37645;SDS011;23489;49.600;6.138;2022-09-30T04:03:48;15.63;;;6.03;;
37645;SDS011;23489;49.600;6.138;2022-09-30T04:06:16;9.75;;;6.40;;
37645;SDS011;23489;49.600;6.138;2022-09-30T04:08:42;10.77;;;6.45;;
37645;SDS011;23489;49.600;6.138;2022-09-30T04:11:08;9.48;;;6.50;;
37645;SDS011;23489;49.600;6.138;2022-09-30T04:13:35;10.85;;;6.80;;
37645;SDS011;23489;49.600;6.138;2022-09-30T04:16:01;10.32;;;6.35;;
37645;SDS011;23489;49.600;6.138;2022-09-30T04:18:26;10.23;;;6.50;;
37645;SDS011;23489;49.600;6.138;2022-09-30T04:20:54;8.13;;;5.72;;
37645;SDS011;23489;49.600;6.138;2022-09-30T04:23:20;10.05;;;5.97;;
37645;SDS011;23489;49.600;6.138;2022-09-30T04:25:55;9.55;;;6.07;;
37645;SDS011;23489;49.600;6.138;2022-09-30T04:28:21;9.60;;;6.05;;
37645;SDS011;23489;49.600;6.138;2022-09-30T04:30:47;8.73;;;6.03;;
37645;SDS011;23489;49.600;6.138;2022-09-30T04:33:12;9.20;;;5.85;;
37645;SDS011;23489;49.600;6.138;2022-09-30T04:35:38;15.65;;;5.22;;
37645;SDS011;23489;49.600;6.138;2022-09-30T04:38:04;13.57;;;5.32;;
37645;SDS011;23489;49.600;6.138;2022-09-30T04:40:34;11.32;;;5.32;;
37645;SDS011;23489;49.600;6.138;2022-09-30T04:43:01;14.90;;;5.20;;
37645;SDS011;23489;49.600;6.138;2022-09-30T04:45:27;16.00;;;4.85;;
37645;SDS011;23489;49.600;6.138;2022-09-30T04:47:54;16.08;;;5.70;;
37645;SDS011;23489;49.600;6.138;2022-09-30T04:50:19;9.95;;;5.00;;
37645;SDS011;23489;49.600;6.138;2022-09-30T04:52:47;8.23;;;5.00;;
37645;SDS011;23489;49.600;6.138;2022-09-30T04:55:13;14.88;;;4.88;;
37645;SDS011;23489;49.600;6.138;2022-09-30T04:57:38;20.48;;;5.18;;
37645;SDS011;23489;49.600;6.138;2022-09-30T05:00:09;31.60;;;5.82;;
37645;SDS011;23489;49.600;6.138;2022-09-30T05:02:35;42.67;;;8.18;;
37645;SDS011;23489;49.600;6.138;2022-09-30T05:05:01;21.10;;;4.60;;
37645;SDS011;23489;49.600;6.138;2022-09-30T05:07:29;15.43;;;5.13;;
37645;SDS011;23489;49.600;6.138;2022-09-30T05:09:55;24.30;;;5.22;;
37645;SDS011;23489;49.600;6.138;2022-09-30T05:12:21;19.45;;;4.97;;
37645;SDS011;23489;49.600;6.138;2022-09-30T05:14:47;20.70;;;5.18;;
37645;SDS011;23489;49.600;6.138;2022-09-30T05:17:13;5.97;;;4.68;;
37645;SDS011;23489;49.600;6.138;2022-09-30T05:19:39;16.10;;;5.03;;
37645;SDS011;23489;49.600;6.138;2022-09-30T05:22:04;14.95;;;4.72;;
37645;SDS011;23489;49.600;6.138;2022-09-30T05:24:30;15.60;;;5.10;;
37645;SDS011;23489;49.600;6.138;2022-09-30T05:26:55;13.70;;;4.68;;
37645;SDS011;23489;49.600;6.138;2022-09-30T05:29:21;31.50;;;5.85;;
37645;SDS011;23489;49.600;6.138;2022-09-30T05:31:47;8.63;;;4.60;;
37645;SDS011;23489;49.600;6.138;2022-09-30T05:34:12;8.70;;;4.30;;
37645;SDS011;23489;49.600;6.138;2022-09-30T05:36:41;32.88;;;4.40;;
37645;SDS011;23489;49.600;6.138;2022-09-30T05:39:08;20.60;;;4.20;;
37645;SDS011;23489;49.600;6.138;2022-09-30T05:41:34;21.00;;;4.93;;
37645;SDS011;23489;49.600;6.138;2022-09-30T05:43:59;8.25;;;4.20;;
37645;SDS011;23489;49.600;6.138;2022-09-30T05:46:25;16.95;;;4.68;;
37645;SDS011;23489;49.600;6.138;2022-09-30T05:48:52;23.05;;;4.95;;
37645;SDS011;23489;49.600;6.138;2022-09-30T05:51:18;30.25;;;5.60;;
37645;SDS011;23489;49.600;6.138;2022-09-30T05:53:44;19.90;;;5.03;;
37645;SDS011;23489;49.600;6.138;2022-09-30T05:56:10;7.53;;;5.25;;
37645;SDS011;23489;49.600;6.138;2022-09-30T05:58:36;14.27;;;7.30;;
37645;SDS011;23489;49.600;6.138;2022-09-30T06:01:06;12.40;;;6.57;;
37645;SDS011;23489;49.600;6.138;2022-09-30T06:03:35;11.50;;;6.53;;
37645;SDS011;23489;49.600;6.138;2022-09-30T06:06:02;12.90;;;7.07;;
37645;SDS011;23489;49.600;6.138;2022-09-30T06:08:29;13.35;;;6.70;;
37645;SDS011;23489;49.600;6.138;2022-09-30T06:10:55;14.90;;;6.95;;
37645;SDS011;23489;49.600;6.138;2022-09-30T06:13:25;16.92;;;6.97;;
37645;SDS011;23489;49.600;6.138;2022-09-30T06:15:58;18.75;;;7.13;;
37645;SDS011;23489;49.600;6.138;2022-09-30T06:18:25;15.90;;;6.65;;
37645;SDS011;23489;49.600;6.138;2022-09-30T06:20:52;12.05;;;6.32;;
37645;SDS011;23489;49.600;6.138;2022-09-30T06:23:20;14.70;;;6.30;;
37645;SDS011;23489;49.600;6.138;2022-09-30T06:25:50;18.10;;;6.38;;
37645;SDS011;23489;49.600;6.138;2022-09-30T06:28:19;17.85;;;6.30;;
37645;SDS011;23489;49.600;6.138;2022-09-30T06:30:46;10.45;;;6.63;;
37645;SDS011;23489;49.600;6.138;2022-09-30T06:33:12;19.33;;;6.53;;
37645;SDS011;23489;49.600;6.138;2022-09-30T06:35:38;12.23;;;6.47;;
37645;SDS011;23489;49.600;6.138;2022-09-30T06:38:08;13.32;;;6.72;;
37645;SDS011;23489;49.600;6.138;2022-09-30T06:40:34;10.77;;;6.65;;
37645;SDS011;23489;49.600;6.138;2022-09-30T06:43:00;13.38;;;6.15;;
37645;SDS011;23489;49.600;6.138;2022-09-30T06:52:48;10.73;;;6.38;;
37645;SDS011;23489;49.600;6.138;2022-09-30T06:55:13;12.65;;;5.35;;
37645;SDS011;23489;49.600;6.138;2022-09-30T06:57:39;17.73;;;5.95;;
37645;SDS011;23489;49.600;6.138;2022-09-30T07:00:06;9.75;;;5.63;;
37645;SDS011;23489;49.600;6.138;2022-09-30T07:02:32;6.15;;;4.70;;
37645;SDS011;23489;49.600;6.138;2022-09-30T07:17:08;12.77;;;6.07;;
37645;SDS011;23489;49.600;6.138;2022-09-30T07:19:33;10.30;;;6.13;;
37645;SDS011;23489;49.600;6.138;2022-09-30T07:21:59;11.18;;;5.43;;
37645;SDS011;23489;49.600;6.138;2022-09-30T07:24:45;11.73;;;5.75;;
37645;SDS011;23489;49.600;6.138;2022-09-30T07:27:11;16.25;;;5.60;;
37645;SDS011;23489;49.600;6.138;2022-09-30T07:29:38;7.55;;;5.13;;
37645;SDS011;23489;49.600;6.138;2022-09-30T10:48:13;3.83;;;3.13;;
37645;SDS011;23489;49.600;6.138;2022-09-30T10:50:52;6.57;;;4.18;;
37645;SDS011;23489;49.600;6.138;2022-09-30T10:53:22;5.53;;;3.25;;
37645;SDS011;23489;49.600;6.138;2022-09-30T10:55:50;6.15;;;4.00;;
37645;SDS011;23489;49.600;6.138;2022-09-30T12:49:10;5.47;;;3.03;;
37645;SDS011;23489;49.600;6.138;2022-09-30T12:51:31;3.92;;;2.70;;
37645;SDS011;23489;49.600;6.138;2022-09-30T12:54:33;4.95;;;2.70;;
37645;SDS011;23489;49.600;6.138;2022-09-30T18:27:43;3.92;;;2.25;;
37645;SDS011;23489;49.600;6.138;2022-09-30T18:30:16;3.97;;;2.33;;
37645;SDS011;23489;49.600;6.138;2022-09-30T18:32:45;8.10;;;2.90;;
37645;SDS011;23489;49.600;6.138;2022-09-30T18:35:13;3.75;;;2.55;;
37645;SDS011;23489;49.600;6.138;2022-09-30T18:37:41;3.78;;;2.50;;
37645;SDS011;23489;49.600;6.138;2022-09-30T18:40:07;5.15;;;2.72;;
37645;SDS011;23489;49.600;6.138;2022-09-30T18:42:33;6.20;;;2.80;;
37645;SDS011;23489;49.600;6.138;2022-09-30T18:45:02;2.47;;;1.95;;
37645;SDS011;23489;49.600;6.138;2022-09-30T18:47:29;2.47;;;2.17;;
37645;SDS011;23489;49.600;6.138;2022-09-30T18:49:56;4.05;;;2.70;;
37645;SDS011;23489;49.600;6.138;2022-09-30T18:52:22;2.60;;;1.88;;
37645;SDS011;23489;49.600;6.138;2022-09-30T18:54:48;5.63;;;2.33;;
37645;SDS011;23489;49.600;6.138;2022-09-30T18:57:14;4.30;;;2.20;;
37645;SDS011;23489;49.600;6.138;2022-09-30T18:59:40;4.10;;;2.20;;
37645;SDS011;23489;49.600;6.138;2022-09-30T19:02:07;2.72;;;2.22;;
37645;SDS011;23489;49.600;6.138;2022-09-30T19:04:37;3.70;;;2.40;;
37645;SDS011;23489;49.600;6.138;2022-09-30T19:07:03;5.32;;;2.47;;
37645;SDS011;23489;49.600;6.138;2022-09-30T19:09:29;4.47;;;2.28;;
37645;SDS011;23489;49.600;6.138;2022-09-30T19:11:54;5.15;;;2.33;;
37645;SDS011;23489;49.600;6.138;2022-09-30T19:14:20;6.10;;;3.10;;
37645;SDS011;23489;49.600;6.138;2022-09-30T19:16:46;3.50;;;2.65;;
37645;SDS011;23489;49.600;6.138;2022-09-30T19:19:11;3.75;;;2.60;;
37645;SDS011;23489;49.600;6.138;2022-09-30T19:21:37;4.10;;;2.67;;
37645;SDS011;23489;49.600;6.138;2022-09-30T19:24:04;4.30;;;2.55;;
37645;SDS011;23489;49.600;6.138;2022-09-30T19:26:32;6.10;;;2.88;;
37645;SDS011;23489;49.600;6.138;2022-09-30T19:29:00;4.20;;;3.03;;
37645;SDS011;23489;49.600;6.138;2022-09-30T19:31:27;4.00;;;2.85;;
37645;SDS011;23489;49.600;6.138;2022-09-30T19:33:53;4.32;;;3.20;;
37645;SDS011;23489;49.600;6.138;2022-09-30T19:36:21;5.18;;;2.85;;
37645;SDS011;23489;49.600;6.138;2022-09-30T19:38:48;5.28;;;2.85;;
37645;SDS011;23489;49.600;6.138;2022-09-30T19:41:14;3.22;;;2.67;;
37645;SDS011;23489;49.600;6.138;2022-09-30T19:43:47;8.07;;;2.90;;
37645;SDS011;23489;49.600;6.138;2022-09-30T19:46:13;3.08;;;2.80;;
37645;SDS011;23489;49.600;6.138;2022-09-30T19:48:39;3.05;;;2.45;;
37645;SDS011;23489;49.600;6.138;2022-09-30T19:51:10;5.03;;;2.72;;
37645;SDS011;23489;49.600;6.138;2022-09-30T19:53:39;4.22;;;2.50;;
37645;SDS011;23489;49.600;6.138;2022-09-30T19:56:10;3.38;;;2.83;;
37645;SDS011;23489;49.600;6.138;2022-09-30T19:58:39;4.75;;;2.80;;
37645;SDS011;23489;49.600;6.138;2022-09-30T20:01:06;5.53;;;3.50;;
37645;SDS011;23489;49.600;6.138;2022-09-30T20:03:34;7.65;;;3.53;;
37645;SDS011;23489;49.600;6.138;2022-09-30T20:08:51;4.53;;;3.42;;
37645;SDS011;23489;49.600;6.138;2022-09-30T20:11:19;3.88;;;3.38;;
37645;SDS011;23489;49.600;6.138;2022-09-30T20:13:49;5.53;;;3.03;;
37645;SDS011;23489;49.600;6.138;2022-09-30T20:16:36;3.15;;;2.83;;
37645;SDS011;23489;49.600;6.138;2022-09-30T20:19:02;3.38;;;3.05;;
37645;SDS011;23489;49.600;6.138;2022-09-30T20:21:28;6.07;;;3.97;;
37645;SDS011;23489;49.600;6.138;2022-09-30T20:23:53;4.47;;;3.17;;
37645;SDS011;23489;49.600;6.138;2022-09-30T20:26:20;4.15;;;3.30;;
37645;SDS011;23489;49.600;6.138;2022-09-30T20:28:46;4.90;;;3.72;;
37645;SDS011;23489;49.600;6.138;2022-09-30T20:31:13;4.78;;;4.00;;
37645;SDS011;23489;49.600;6.138;2022-09-30T20:33:40;4.75;;;3.55;;
37645;SDS011;23489;49.600;6.138;2022-09-30T20:36:07;3.75;;;3.35;;
37645;SDS011;23489;49.600;6.138;2022-09-30T20:38:35;5.82;;;3.92;;
37645;SDS011;23489;49.600;6.138;2022-09-30T20:41:01;4.68;;;3.65;;
37645;SDS011;23489;49.600;6.138;2022-09-30T20:43:28;6.55;;;3.75;;
37645;SDS011;23489;49.600;6.138;2022-09-30T20:45:56;6.93;;;3.83;;
37645;SDS011;23489;49.600;6.138;2022-09-30T20:48:25;7.60;;;3.72;;
37645;SDS011;23489;49.600;6.138;2022-09-30T20:50:54;6.78;;;3.42;;
37645;SDS011;23489;49.600;6.138;2022-09-30T20:53:20;4.90;;;3.40;;
37645;SDS011;23489;49.600;6.138;2022-09-30T20:55:46;5.00;;;3.55;;
37645;SDS011;23489;49.600;6.138;2022-09-30T20:58:12;4.72;;;3.80;;
37645;SDS011;23489;49.600;6.138;2022-09-30T21:00:38;6.35;;;4.00;;
37645;SDS011;23489;49.600;6.138;2022-09-30T21:03:06;4.55;;;4.10;;
37645;SDS011;23489;49.600;6.138;2022-09-30T21:05:33;8.32;;;3.80;;
37645;SDS011;23489;49.600;6.138;2022-09-30T21:07:59;4.22;;;3.75;;
37645;SDS011;23489;49.600;6.138;2022-09-30T21:10:29;4.95;;;3.90;;
37645;SDS011;23489;49.600;6.138;2022-09-30T21:12:56;6.95;;;4.07;;
37645;SDS011;23489;49.600;6.138;2022-09-30T21:15:23;3.88;;;3.42;;
37645;SDS011;23489;49.600;6.138;2022-09-30T21:17:49;4.00;;;3.60;;
37645;SDS011;23489;49.600;6.138;2022-09-30T21:20:18;7.13;;;4.03;;
37645;SDS011;23489;49.600;6.138;2022-09-30T21:22:47;4.93;;;4.03;;
37645;SDS011;23489;49.600;6.138;2022-09-30T21:25:13;4.68;;;3.85;;
37645;SDS011;23489;49.600;6.138;2022-09-30T21:27:39;4.10;;;3.70;;
37645;SDS011;23489;49.600;6.138;2022-09-30T21:30:09;5.03;;;3.85;;
37645;SDS011;23489;49.600;6.138;2022-09-30T21:32:35;4.45;;;3.75;;
37645;SDS011;23489;49.600;6.138;2022-09-30T21:35:01;5.13;;;3.50;;
37645;SDS011;23489;49.600;6.138;2022-09-30T21:37:28;6.50;;;4.25;;
37645;SDS011;23489;49.600;6.138;2022-09-30T21:39:53;4.68;;;3.78;;
37645;SDS011;23489;49.600;6.138;2022-09-30T21:42:19;6.03;;;3.85;;
37645;SDS011;23489;49.600;6.138;2022-09-30T21:44:46;3.58;;;3.28;;
37645;SDS011;23489;49.600;6.138;2022-09-30T21:47:12;5.15;;;3.80;;
37645;SDS011;23489;49.600;6.138;2022-09-30T21:49:39;6.90;;;3.95;;
37645;SDS011;23489;49.600;6.138;2022-09-30T21:52:05;5.40;;;3.47;;
37645;SDS011;23489;49.600;6.138;2022-09-30T21:54:33;5.95;;;3.78;;
37645;SDS011;23489;49.600;6.138;2022-09-30T21:56:59;4.18;;;3.53;;
37645;SDS011;23489;49.600;6.138;2022-09-30T21:59:25;6.60;;;3.55;;
37645;SDS011;23489;49.600;6.138;2022-09-30T22:01:50;4.45;;;3.70;;
37645;SDS011;23489;49.600;6.138;2022-09-30T22:04:17;4.53;;;3.35;;
37645;SDS011;23489;49.600;6.138;2022-09-30T22:06:43;5.13;;;3.88;;
37645;SDS011;23489;49.600;6.138;2022-09-30T22:09:10;4.95;;;3.88;;
37645;SDS011;23489;49.600;6.138;2022-09-30T22:11:35;3.72;;;3.30;;
37645;SDS011;23489;49.600;6.138;2022-09-30T22:14:01;5.38;;;4.07;;
37645;SDS011;23489;49.600;6.138;2022-09-30T22:16:28;5.20;;;3.90;;
37645;SDS011;23489;49.600;6.138;2022-09-30T22:18:55;10.05;;;4.22;;
37645;SDS011;23489;49.600;6.138;2022-09-30T22:21:23;5.93;;;4.05;;
37645;SDS011;23489;49.600;6.138;2022-09-30T22:23:49;6.13;;;3.88;;
37645;SDS011;23489;49.600;6.138;2022-09-30T22:26:16;4.65;;;3.90;;
37645;SDS011;23489;49.600;6.138;2022-09-30T22:28:44;6.30;;;4.00;;
37645;SDS011;23489;49.600;6.138;2022-09-30T22:31:14;4.75;;;4.25;;
37645;SDS011;23489;49.600;6.138;2022-09-30T22:33:49;6.85;;;4.03;;
37645;SDS011;23489;49.600;6.138;2022-09-30T22:36:34;5.85;;;3.97;;
37645;SDS011;23489;49.600;6.138;2022-09-30T22:39:19;5.40;;;3.70;;
37645;SDS011;23489;49.600;6.138;2022-09-30T22:41:45;4.28;;;3.83;;
37645;SDS011;23489;49.600;6.138;2022-09-30T22:44:12;4.30;;;3.70;;
37645;SDS011;23489;49.600;6.138;2022-09-30T22:46:40;3.83;;;3.50;;
37645;SDS011;23489;49.600;6.138;2022-09-30T22:49:06;5.55;;;3.58;;
37645;SDS011;23489;49.600;6.138;2022-09-30T22:51:31;4.20;;;3.70;;
37645;SDS011;23489;49.600;6.138;2022-09-30T22:54:00;6.15;;;3.40;;
37645;SDS011;23489;49.600;6.138;2022-09-30T22:56:27;4.78;;;3.10;;
37645;SDS011;23489;49.600;6.138;2022-09-30T22:58:56;3.70;;;3.20;;
37645;SDS011;23489;49.600;6.138;2022-09-30T23:01:23;4.35;;;2.83;;
37645;SDS011;23489;49.600;6.138;2022-09-30T23:03:52;5.20;;;2.95;;
37645;SDS011;23489;49.600;6.138;2022-09-30T23:06:18;3.65;;;2.90;;
37645;SDS011;23489;49.600;6.138;2022-09-30T23:08:44;4.60;;;3.10;;
37645;SDS011;23489;49.600;6.138;2022-09-30T23:11:13;3.38;;;2.97;;
37645;SDS011;23489;49.600;6.138;2022-09-30T23:13:46;3.70;;;3.00;;
37645;SDS011;23489;49.600;6.138;2022-09-30T23:16:12;4.07;;;3.20;;
37645;SDS011;23489;49.600;6.138;2022-09-30T23:18:38;3.78;;;2.90;;
37645;SDS011;23489;49.600;6.138;2022-09-30T23:21:11;4.03;;;2.83;;
37645;SDS011;23489;49.600;6.138;2022-09-30T23:23:39;3.03;;;2.72;;
37645;SDS011;23489;49.600;6.138;2022-09-30T23:26:06;3.30;;;2.70;;
37645;SDS011;23489;49.600;6.138;2022-09-30T23:28:37;3.63;;;2.53;;
37645;SDS011;23489;49.600;6.138;2022-09-30T23:31:03;4.43;;;2.70;;
37645;SDS011;23489;49.600;6.138;2022-09-30T23:33:34;3.30;;;3.00;;
37645;SDS011;23489;49.600;6.138;2022-09-30T23:36:02;4.03;;;2.70;;
37645;SDS011;23489;49.600;6.138;2022-09-30T23:38:28;2.92;;;2.60;;
37645;SDS011;23489;49.600;6.138;2022-09-30T23:40:55;6.32;;;2.60;;
37645;SDS011;23489;49.600;6.138;2022-09-30T23:43:26;3.35;;;2.70;;
37645;SDS011;23489;49.600;6.138;2022-09-30T23:45:55;3.05;;;2.60;;
37645;SDS011;23489;49.600;6.138;2022-09-30T23:48:24;4.93;;;2.75;;
37645;SDS011;23489;49.600;6.138;2022-09-30T23:50:50;3.42;;;2.67;;
37645;SDS011;23489;49.600;6.138;2022-09-30T23:53:17;4.65;;;2.50;;
37645;SDS011;23489;49.600;6.138;2022-09-30T23:58:23;3.70;;;2.60;;
